Steptoe Valley WMA, Nevada Weather observations

Data are for 10 minute period ending at time listed.
 Day   Time   Solar   Ave.   Ave.  Ave.  Vector  Max.   Baro.   Total    
  of    of     Rad.   Air    Rel.  Wind   Wind   Wind  Press.  Precip.   
Year   Day            Temp.  Hum.  Speed  Dir.   Gust                    
2016   (PST)  Kw/m2    F      %     mph   deg.    mph    mb.     in.     
-------------------------------------------------------------------------
  39   15:00   0.37   34.8    60    3.9     2     4.8   816.3    0.00 
  39   15:10   0.34   35.8    56    3.1     4     3.9   816.3    0.00 
  39   15:20   0.31   37.1    53    2.6    18     3.2   816.4    0.00 
  39   15:30   0.28   36.0    57    3.0    82     4.4   816.4    0.00 
  39   15:40   0.25   35.1    59    2.7   138     3.9   816.4    0.00 
  39   15:50   0.22   34.2    59    2.4   175     3.8   816.5    0.00 
  39   16:00   0.19   32.5    66    2.9   173     3.7   816.6    0.00 
  39   16:10   0.17   33.6    65    3.9   189     5.3   816.6    0.00 
  39   16:20   0.14   32.6    67    4.7   147     6.1   816.6    0.00 
  39   16:30   0.11   31.9    68    4.3   142     6.2   816.5    0.00 
  39   16:40   0.07   31.1    69    4.7   155     6.1   816.5    0.00 
  39   16:50   0.02   28.3    72    3.5   166     5.3   816.5    0.00 
  39   17:00   0.01   28.0    76    4.9   150     6.6   816.5    0.00 
  39   17:10   0.01   27.3    75    6.3   142     7.7   816.6    0.00 
  39   17:20   0.00   27.0    76    6.5   139     7.9   816.6    0.00 
  39   17:30   0.00   24.0    76    4.8   183     6.6   816.6    0.00 
  39   17:40   0.00   21.2    81    4.7   175     6.6   816.5    0.00 
  39   17:50   0.00   20.6    81    4.7   186     6.6   816.5    0.00 
  39   18:00   0.00   20.1    83    4.6   181     6.0   816.5    0.00 
  39   18:10   0.00   20.2    80    3.2   187     5.6   816.5    0.00 
  39   18:20   0.00   18.7    78    2.1   194     4.2   816.5    0.00 
  39   18:30   0.00   16.4    82    3.0   182     7.7   816.5    0.00 
  39   18:40   0.00   18.3    82    5.0   197     6.7   816.4    0.00 
  39   18:50   0.00   14.7    82    6.5   190     8.2   816.3    0.00 
  39   19:00   0.00   13.7    86    3.4   169     6.2   816.3    0.00 
  39   19:10   0.00   14.2    86    2.6   192     5.1   816.3    0.00 
  39   19:20   0.00   11.8    84    3.2   187     5.0   816.3    0.00 
  39   19:30   0.00   12.1    87    2.5   179     4.2   816.3    0.00 
  39   19:40   0.00   12.8    87    3.3   162     7.4   816.3    0.00 
  39   19:50   0.00   18.2    89    5.8   164     8.5   816.2    0.00 
  39   20:00   0.00   13.4    78    3.9   182     5.7   816.4    0.00 
  39   20:10   0.00   10.0    83    2.8   184     5.2   816.4    0.00 
  39   20:20   0.00    8.3    84    5.2   167     7.5   816.4    0.00 
  39   20:30   0.00    8.1    86    2.8   171     6.6   816.3    0.00 
  39   20:40   0.00    8.1    86    4.0   180     7.4   816.3    0.00 
  39   20:50   0.00    8.9    86    3.5   175     6.6   816.3    0.00 
  39   21:00   0.00   11.0    88    3.5   160     6.8   816.3    0.00 
  39   21:10   0.00   10.7    84    6.0   178     8.6   816.3    0.00 
  39   21:20   0.00    9.2    82    4.9   183     8.1   816.4    0.00 
  39   21:30   0.00    5.6    83    6.4   196     7.5   816.4    0.00 
  39   21:40   0.00    5.1    84    6.6   187     8.0   816.4    0.00 
  39   21:50   0.00    4.5    84    4.5   182     6.1   816.5    0.00 
  39   22:00   0.00    5.0    86    3.6   168     5.3   816.5    0.00 
  39   22:10   0.00    8.0    88    5.0   165     6.6   816.4    0.00 
  39   22:20   0.00    6.2    82    6.4   190     8.5   816.4    0.00 
  39   22:30   0.00    3.5    83    6.1   182     8.0   816.5    0.00 
  39   22:40   0.00    3.3    84    5.1   174     6.5   816.5    0.00 
  39   22:50   0.00    4.2    85    2.6   161     5.6   816.5    0.00 
  39   23:00   0.00    4.2    84    5.3   176     7.2   816.5    0.00 
  39   23:10   0.00    2.7    83    5.5   169     7.9   816.5    0.00 
  39   23:20   0.00    3.5    85    4.8   166     7.1   816.4    0.00 
  39   23:30   0.00    5.5    87    4.3   170     8.7   816.4    0.00 
  39   23:40   0.00    8.7    86    6.5   175     8.0   816.3    0.00 
  39   23:50   0.00   10.1    86    4.7   187     7.7   816.3    0.00 
  40    0:00   0.00    7.0    81    5.5   177     7.9   816.3    0.00 
  40    0:10   0.00    4.7    84    4.5   195     7.5   816.2    0.00 
  40    0:20   0.00    5.0    84    3.3   189     5.6   816.0    0.00 
  40    0:30   0.00    2.1    82    4.4   179     8.1   816.0    0.00 
  40    0:40   0.00    0.9    83    4.8   163     7.6   815.9    0.00 
  40    0:50   0.00    2.1    85    3.2   156     6.2   815.9    0.00 
  40    1:00   0.00    6.4    89    5.2   169     7.7   815.9    0.00 
  40    1:10   0.00    6.0    84    4.4   178     8.0   815.8    0.00 
  40    1:20   0.00    4.2    84    5.0   178     8.0   815.7    0.00 
  40    1:30   0.00    3.6    84    5.5   175     7.2   815.7    0.00 
  40    1:40   0.00    2.0    83    5.0   180     7.7   815.7    0.00 
  40    1:50   0.00    1.6    84    2.7   183     5.5   815.7    0.00 
  40    2:00   0.00    2.2    85    2.5   175     4.3   815.7    0.00 
  40    2:10   0.00    1.9    84    4.6   174     6.9   815.6    0.00 
  40    2:20   0.00    1.9    85    5.9   168     7.2   815.5    0.00 
  40    2:30   0.00    2.7    85    6.4   181     9.6   815.5    0.00 
  40    2:40   0.00    1.4    83    7.0   191     8.8   815.5    0.00 
  40    2:50   0.00    6.0    89    4.6   175     9.3   815.5    0.00 
  40    3:00   0.00    6.7    86    2.1   162     3.5   815.5    0.00 
  40    3:10   0.00    5.5    85    4.2   172     5.8   815.4    0.00 
  40    3:20   0.00    2.0    82    5.3   183     7.5   815.3    0.00 
  40    3:30   0.00    0.2    84    3.2   174     5.6   815.3    0.00 
  40    3:40   0.00   -0.0    84    4.2   178     5.7   815.3    0.00 
  40    3:50   0.00    1.1    86    4.2   176     7.1   815.4    0.00 
  40    4:00   0.00    3.9    88    6.0   173     8.0   815.5    0.00 
  40    4:10   0.00    8.0    89    6.0   187     8.8   815.4    0.00 
  40    4:20   0.00    4.3    80    7.2   200     9.8   815.3    0.00 
  40    4:30   0.00   -1.0    82    6.8   186     9.3   815.4    0.00 
  40    4:40   0.00    0.6    86    8.2   188    10.7   815.4    0.00 
  40    4:50   0.00    3.3    87    4.2   196     7.6   815.4    0.00 
  40    5:00   0.00    5.6    87    7.0   173    10.4   815.4    0.00 
  40    5:10   0.00    7.5    86    5.8   168     8.8   815.3    0.00 
  40    5:20   0.00    7.3    86    3.7   176     5.9   815.2    0.00 
  40    5:30   0.00    6.1    84    5.7   205     8.2   815.1    0.00 
  40    5:40   0.00    2.6    83    5.4   187     7.8   815.1    0.00 
  40    5:50   0.00   -0.0    83    4.0   180     5.8   815.2    0.00 
  40    6:00   0.00   -0.4    84    4.6   170     6.9   815.3    0.00 
  40    6:10   0.00    1.2    86    4.8   180     6.9   815.3    0.00 
  40    6:20   0.00    1.1    85    4.0   174     6.3   815.4    0.00 
  40    6:30   0.00    1.6    85    3.7   177     6.2   815.4    0.00 
  40    6:40   0.00   -0.3    83    4.0   165     6.3   815.4    0.00 
  40    6:50   0.01    0.6    86    3.9   175     6.8   815.3    0.00 
  40    7:00   0.01    3.0    86    3.2   171     5.9   815.2    0.00 
  40    7:10   0.01    3.6    85    4.5   168     6.8   815.2    0.00 
  40    7:20   0.02    2.1    84    4.7   160     7.2   815.2    0.00 
  40    7:30   0.02    1.7    83    4.2   187     8.4   815.2    0.00 
  40    7:40   0.12    2.0    84    5.2   174     7.5   815.2    0.00 
  40    7:50   0.17    6.5    86    4.4   160     7.7   815.2    0.00 
  40    8:00   0.20    9.8    82    1.8   168     3.5   815.3    0.00 
  40    8:10   0.23    9.5    74    3.9   180     5.6   815.3    0.00 
  40    8:20   0.25    5.9    74    4.9   174     7.7   815.3    0.00 
  40    8:30   0.28    5.3    76    6.7   176     8.3   815.2    0.00 
  40    8:40   0.30    9.2    79    4.7   179     6.4   815.2    0.00 
  40    8:50   0.33   14.2    77    4.9   179     7.5   815.2    0.00 
  40    9:00   0.36   17.7    74    6.2   178     8.7   815.2    0.00 
  40    9:10   0.40   19.7    71    6.6   182     9.2   815.2    0.00 
  40    9:20   0.44   19.1    73    7.9   178     9.3   815.3    0.00 
  40    9:30   0.47   20.4    72    6.4   170     8.6   815.4    0.00 
  40    9:40   0.49   21.8    70    6.1   169     8.6   815.4    0.00 
  40    9:50   0.52   23.3    69    8.3   146    10.7   815.4    0.00 
  40   10:00   0.54   23.5    70    6.7   146     9.5   815.4    0.00 
  40   10:10   0.56   25.3    68    5.5   175     7.7   815.4    0.00 
  40   10:20   0.57   26.5    67    4.7   189     6.1   815.4    0.00 
  40   10:30   0.59   27.0    66    4.4   188     5.9   815.4    0.00 
  40   10:40   0.60   25.7    68    4.8   197     5.9   815.4    0.00 
  40   10:50   0.62   25.6    70    5.1   190     6.5   815.3    0.00 
  40   11:00   0.63   26.5    71    5.3   191     6.4   815.2    0.00 
  40   11:10   0.64   27.7    71    5.7   186     7.2   815.1    0.00 
  40   11:20   0.65   29.0    69    5.8   181     7.4   815.0    0.00 
  40   11:30   0.65   29.7    68    5.8   181     7.5   814.8    0.00 
  40   11:40   0.66   29.9    70    6.7   194     8.3   814.7    0.00 
  40   11:50   0.66   29.8    72    4.9   192     6.9   814.6    0.00 
  40   12:00   0.66   32.3    68    3.8   200     5.0   814.5    0.00 
  40   12:10   0.66   33.7    64    3.6   179     4.2   814.4    0.00 
  40   12:20   0.65   35.8    60    3.4   190     4.2   814.2    0.00 
  40   12:30   0.65   37.6    59    3.5   206     4.4   814.1    0.00 
  40   12:40   0.64   36.9    61    3.3   199     4.2   813.9    0.00 
  40   12:50   0.63   37.1    61    4.2   195     5.6   813.7    0.00 
  40   13:00   0.62   35.6    64    4.8   192     6.0   813.6    0.00 
  40   13:10   0.61   35.4    63    5.0   178     6.1   813.5    0.00 
  40   13:20   0.59   36.9    60    4.7   152     6.1   813.4    0.00 
  40   13:30   0.58   38.8    54    3.7   145     4.6   813.2    0.00 
  40   13:40   0.56   39.0    49    2.5   130     3.4   813.0    0.00 
  40   13:50   0.54   40.3    43    1.8   122     2.6   812.9    0.00 
  40   14:00   0.52   42.7    53    2.5   205     3.4   812.9    0.00 
  40   14:10   0.50   40.1    58    2.7   183     3.7   812.7    0.00 
  40   14:20   0.48   37.9    62    3.3   178     4.5   812.7    0.00 
  40   14:30   0.46   36.3    66    4.4   179     5.3   812.7    0.00 
  40   14:40   0.43   37.8    61    4.5   169     5.9   812.7    0.00 
  40   14:50   0.41   37.8    60    4.8   169     6.1   812.7    0.00 

Return to Steptoe Valley WMA graphs page.


Western Regional Climate Center,wrcc@dri.edu